Time;durP1;ratioP1;P1;durP2;ratioP2;P2;SDS_P1;SDS_P2;PMS_P1;PMS_P2;Temp;Humidity;BMP_temperature;BMP_pressure;BME280_temperature;BME280_humidity;BME280_pressure;Samples;Min_cycle;Max_cycle;Signal;HPM_P1;HPM_P2
2021/03/27 00:02:01;;;;;;;154.82;76.67;;;;;;;0.28;82.38;98517.39;1827276;78;21094;-72
2021/03/27 00:04:44;;;;;;;180.93;87.88;;;;;;;0.32;83.76;98523.64;1827311;77;21094;-72
2021/03/27 00:07:34;;;;;;;204.03;93.12;;;;;;;0.35;84.00;98517.41;1826786;78;21196;-73
2021/03/27 00:10:24;;;;;;;159.25;77.53;;;;;;;0.41;83.84;98518.43;1825171;77;20967;-73
2021/03/27 00:13:28;;;;;;;131.50;63.23;;;;;;;0.53;83.75;98519.50;1825251;78;21118;-72
2021/03/27 00:16:23;;;;;;;133.10;65.85;;;;;;;0.59;82.46;98512.50;1825235;77;21023;-72
2021/03/27 00:19:12;;;;;;;121.28;65.42;;;;;;;0.62;85.04;98510.27;1802149;78;21499;-72
2021/03/27 00:21:47;;;;;;;103.90;51.40;;;;;;;0.77;85.23;98512.23;1824740;77;21194;-72
2021/03/27 00:24:34;;;;;;;108.83;56.83;;;;;;;0.89;81.70;98512.44;1824620;78;21074;-71
2021/03/27 00:27:11;;;;;;;113.72;55.25;;;;;;;1.00;84.02;98508.31;1823685;77;21292;-72
2021/03/27 00:29:42;;;;;;;108.03;50.85;;;;;;;1.09;84.05;98500.40;1797032;77;21223;-72
2021/03/27 00:32:25;;;;;;;102.55;52.05;;;;;;;1.17;82.51;98498.84;1824637;78;21019;-72
2021/03/27 00:34:56;;;;;;;111.08;54.75;;;;;;;1.21;82.91;98497.42;1824660;77;21487;-72
2021/03/27 00:37:26;;;;;;;107.60;57.17;;;;;;;1.20;83.43;98502.46;1824584;78;21130;-72
2021/03/27 00:39:58;;;;;;;97.37;46.80;;;;;;;1.23;83.01;98497.20;1824644;77;21467;-72
2021/03/27 00:42:29;;;;;;;107.65;48.98;;;;;;;1.22;81.36;98497.73;1824710;78;21070;-72
2021/03/27 00:45:09;;;;;;;96.97;49.15;;;;;;;1.15;80.90;98495.58;1824427;77;21019;-72
2021/03/27 00:47:39;;;;;;;96.85;46.28;;;;;;;1.09;80.69;98499.88;1824555;78;22187;-72
2021/03/27 00:50:14;;;;;;;98.97;51.73;;;;;;;1.01;80.32;98488.09;1824466;77;21047;-72
2021/03/27 00:52:45;;;;;;;93.67;48.25;;;;;;;0.92;80.25;98488.51;1822940;78;21114;-72
2021/03/27 00:55:25;;;;;;;95.53;48.92;;;;;;;0.87;80.15;98489.14;1823735;77;21086;-72
2021/03/27 00:57:58;;;;;;;102.12;50.08;;;;;;;0.77;82.41;98484.22;1824645;78;21082;-71
2021/03/27 01:00:49;;;;;;;96.92;51.92;;;;;;;0.73;82.79;98480.83;1820716;77;21085;-72
2021/03/27 01:03:31;;;;;;;101.40;48.65;;;;;;;0.74;83.18;98483.80;1731945;82;21090;-71
2021/03/27 01:05:58;;;;;;;101.00;50.25;;;;;;;0.74;81.86;98479.28;1731951;82;21030;-71
2021/03/27 01:08:25;;;;;;;109.00;53.60;;;;;;;0.65;81.59;98475.69;1696669;84;21572;-71
2021/03/27 01:10:56;;;;;;;106.52;51.55;;;;;;;0.63;81.89;98475.91;1699517;84;21117;-72
2021/03/27 01:13:39;;;;;;;95.07;50.58;;;;;;;0.64;80.88;98468.72;1684561;85;21277;-72
2021/03/27 01:16:08;;;;;;;96.82;47.58;;;;;;;0.48;80.30;98472.61;1684447;85;21077;-72
2021/03/27 01:18:41;;;;;;;104.78;55.50;;;;;;;0.36;80.10;98472.91;1673814;84;21168;-72
2021/03/27 01:21:12;;;;;;;100.53;51.33;;;;;;;0.24;83.31;98474.00;1683436;85;21072;-73
2021/03/27 01:23:39;;;;;;;98.25;48.33;;;;;;;0.29;82.50;98467.56;1734079;82;21086;-71
2021/03/27 01:26:10;;;;;;;99.55;53.52;;;;;;;0.32;80.99;98467.14;1734634;82;21290;-71
2021/03/27 01:28:43;;;;;;;99.97;48.48;;;;;;;0.30;83.28;98468.38;1709104;82;21464;-72
2021/03/27 01:31:17;;;;;;;90.92;48.15;;;;;;;0.33;81.10;98471.96;1734604;82;21149;-72
2021/03/27 01:34:21;;;;;;;95.28;48.38;;;;;;;0.23;80.37;98461.19;1734647;82;21491;-72
2021/03/27 01:36:53;;;;;;;110.88;52.93;;;;;;;0.13;80.33;98460.77;1717255;83;21485;-72
2021/03/27 01:39:28;;;;;;;100.53;49.65;;;;;;;0.06;83.90;98461.25;1687070;85;21223;-73
2021/03/27 01:42:18;;;;;;;88.70;48.28;;;;;;;0.11;81.56;98462.81;1725301;82;21093;-72
2021/03/27 01:45:13;;;;;;;94.55;51.02;;;;;;;0.06;81.25;98459.92;1734679;82;21412;-73
2021/03/27 01:47:54;;;;;;;94.83;48.30;;;;;;;0.02;80.55;98454.70;1734514;82;21142;-72
2021/03/27 01:50:48;;;;;;;86.97;43.95;;;;;;;-0.04;80.29;98454.16;1734569;82;21082;-71
2021/03/27 01:53:28;;;;;;;99.22;50.15;;;;;;;-0.05;80.32;98457.86;1733259;81;21218;-71
2021/03/27 01:56:11;;;;;;;115.35;54.90;;;;;;;-0.08;82.77;98454.27;1708372;82;21416;-71
2021/03/27 01:59:07;;;;;;;101.53;47.62;;;;;;;-0.03;83.99;98453.14;1734628;82;21043;-73
2021/03/27 02:01:38;;;;;;;95.75;47.35;;;;;;;0.07;81.13;98450.08;1726843;82;21287;-72
2021/03/27 02:04:24;;;;;;;85.65;46.37;;;;;;;0.04;81.20;98444.66;1693141;83;21058;-72
2021/03/27 02:06:55;;;;;;;85.30;45.35;;;;;;;0.05;82.87;98446.30;1731571;81;21508;-73
2021/03/27 02:09:36;;;;;;;85.83;42.23;;;;;;;0.13;81.01;98440.77;1730112;82;21134;-73
2021/03/27 02:12:27;;;;;;;93.20;46.00;;;;;;;0.14;82.20;98435.75;1727685;83;21531;-72
2021/03/27 02:14:58;;;;;;;85.30;42.17;;;;;;;0.24;82.61;98442.02;1728055;83;21119;-72
2021/03/27 02:17:42;;;;;;;94.70;46.68;;;;;;;0.31;81.60;98434.84;1728019;82;21512;-73
2021/03/27 02:20:49;;;;;;;84.90;40.43;;;;;;;0.32;84.10;98436.48;1728106;83;21150;-73
2021/03/27 02:23:21;;;;;;;84.90;41.40;;;;;;;0.45;82.72;98433.03;1727928;83;21158;-73
2021/03/27 02:26:08;;;;;;;75.80;39.67;;;;;;;0.50;83.19;98434.55;1728092;83;21048;-73
2021/03/27 02:28:49;;;;;;;69.95;36.65;;;;;;;0.51;81.10;98431.70;1727976;83;21052;-73
2021/03/27 02:31:29;;;;;;;79.20;40.28;;;;;;;0.46;81.49;98435.48;1728053;82;21031;-72
2021/03/27 02:34:15;;;;;;;89.85;43.85;;;;;;;0.43;84.52;98435.90;1727597;82;21269;-73
2021/03/27 02:36:53;;;;;;;83.37;43.08;;;;;;;0.47;84.31;98437.63;1727966;83;21087;-71
2021/03/27 02:39:33;;;;;;;79.65;43.02;;;;;;;0.42;84.27;98427.56;1698049;83;21553;-72
2021/03/27 02:42:31;;;;;;;75.85;41.05;;;;;;;0.43;83.96;98431.91;1848167;76;22459;-71
2021/03/27 02:45:21;;;;;;;81.65;41.45;;;;;;;0.37;84.95;98430.05;1800975;79;21471;-72
2021/03/27 02:48:19;;;;;;;82.00;42.13;;;;;;;0.39;83.12;98429.83;1762898;80;21492;-72
2021/03/27 02:51:05;;;;;;;85.92;40.52;;;;;;;0.26;84.43;98426.66;1785756;79;20948;-72
2021/03/27 02:54:01;;;;;;;76.15;39.27;;;;;;;0.19;82.40;98423.98;1785976;80;20984;-72
2021/03/27 02:56:54;;;;;;;82.12;40.85;;;;;;;0.14;84.11;98424.27;1785884;79;21408;-71
2021/03/27 02:59:46;;;;;;;94.62;43.78;;;;;;;0.13;84.24;98426.63;1785927;79;20988;-72
2021/03/27 03:02:31;;;;;;;74.97;39.83;;;;;;;0.17;85.16;98427.85;1785909;79;21132;-72
2021/03/27 03:05:37;;;;;;;80.72;41.33;;;;;;;0.12;84.36;98428.48;1785721;79;21503;-72
2021/03/27 03:08:33;;;;;;;93.15;46.53;;;;;;;0.12;83.42;98421.00;1785881;80;20964;-72
2021/03/27 03:11:22;;;;;;;86.50;43.75;;;;;;;0.02;84.04;98412.58;1785816;79;21035;-72
2021/03/27 03:14:01;;;;;;;;;;;;;;;0.02;82.55;98417.40;1788613;80;21266;-71
2021/03/27 03:16:46;;;;;;;70.85;33.83;;;;;;;-0.07;82.22;98418.09;1780902;79;21219;-73
2021/03/27 03:19:17;;;;;;;93.67;47.62;;;;;;;-0.14;81.78;98411.93;1785850;80;21081;-73
2021/03/27 03:21:49;;;;;;;95.15;47.00;;;;;;;-0.25;83.93;98413.03;1785943;79;21496;-73
2021/03/27 03:24:22;;;;;;;89.75;43.85;;;;;;;-0.25;84.82;98409.86;1785382;80;21083;-73
2021/03/27 03:27:03;;;;;;;89.87;40.67;;;;;;;-0.25;82.36;98412.52;1786002;79;21384;-72
2021/03/27 03:30:09;;;;;;;81.80;39.38;;;;;;;-0.30;82.52;98406.45;1785861;79;21292;-71
2021/03/27 03:32:49;;;;;;;87.53;43.33;;;;;;;-0.32;82.04;98404.52;1785827;80;21071;-72
2021/03/27 03:35:47;;;;;;;87.75;44.48;;;;;;;-0.35;84.31;98400.08;1785830;79;21233;-72
2021/03/27 03:38:31;;;;;;;79.00;39.73;;;;;;;-0.30;83.33;98394.98;1786109;80;21110;-72
2021/03/27 03:41:29;;;;;;;74.75;39.10;;;;;;;-0.34;82.02;98395.09;1785739;79;21024;-73
2021/03/27 03:44:22;;;;;;;81.78;37.53;;;;;;;-0.43;81.80;98393.59;1785929;80;21211;-73
2021/03/27 03:46:59;;;;;;;68.67;36.90;;;;;;;-0.46;81.93;98389.50;1785856;80;21044;-72
2021/03/27 03:50:11;;;;;;;70.42;34.18;;;;;;;-0.47;82.22;98391.04;1785932;79;21482;-72
2021/03/27 03:53:01;;;;;;;72.87;39.50;;;;;;;-0.45;83.52;98388.99;1785454;80;21125;-72
2021/03/27 03:55:41;;;;;;;80.30;38.90;;;;;;;-0.41;84.75;98384.92;1785279;79;21400;-73
2021/03/27 03:58:34;;;;;;;77.55;36.33;;;;;;;-0.38;83.87;98385.84;1785297;80;22257;-72
2021/03/27 04:01:35;;;;;;;66.65;34.40;;;;;;;-0.36;82.95;98387.78;1784907;79;21482;-72
2021/03/27 04:04:21;;;;;;;75.83;34.95;;;;;;;-0.41;81.87;98383.08;1739842;80;21532;-72
2021/03/27 04:07:04;;;;;;;73.42;37.13;;;;;;;-0.42;84.43;98388.09;1785325;80;21105;-72
2021/03/27 04:09:51;;;;;;;81.70;39.38;;;;;;;-0.40;84.74;98381.23;1754418;79;21102;-72
2021/03/27 04:12:32;;;;;;;75.60;38.95;;;;;;;-0.43;86.14;98383.77;1785331;79;21195;-72
2021/03/27 04:15:21;;;;;;;80.30;42.15;;;;;;;-0.39;84.29;98378.37;1785199;79;21059;-72
2021/03/27 04:18:27;;;;;;;71.33;37.88;;;;;;;-0.41;82.47;98372.43;1785276;80;21074;-72
2021/03/27 04:21:03;;;;;;;85.92;42.43;;;;;;;-0.49;82.35;98371.28;1785187;79;21483;-72
2021/03/27 04:23:44;;;;;;;89.00;43.63;;;;;;;-0.44;82.86;98378.14;1785061;80;21066;-71
2021/03/27 04:26:39;;;;;;;79.87;39.08;;;;;;;-0.41;83.97;98370.28;1785319;79;22257;-71
2021/03/27 04:29:36;;;;;;;79.12;36.40;;;;;;;-0.42;82.92;98374.78;1785275;79;21106;-71
2021/03/27 04:32:24;;;;;;;79.58;41.77;;;;;;;-0.50;82.66;98372.30;1785213;80;21103;-72
2021/03/27 04:35:17;;;;;;;225.15;107.80;;;;;;;-0.56;83.66;98370.43;1785292;79;21055;-72
2021/03/27 04:38:20;;;;;;;100.45;50.75;;;;;;;-0.47;83.38;98378.55;1785364;80;21106;-73
2021/03/27 04:40:57;;;;;;;81.92;42.62;;;;;;;-0.39;83.23;98374.38;1785117;79;22154;-72
2021/03/27 04:43:34;;;;;;;113.10;49.13;;;;;;;-0.40;84.32;98376.73;1785306;79;21483;-73
2021/03/27 04:46:17;;;;;;;87.27;46.65;;;;;;;-0.34;82.99;98373.27;1785172;79;21362;-72
2021/03/27 04:49:03;;;;;;;84.67;43.75;;;;;;;-0.37;82.87;98373.66;1785195;79;21097;-72
2021/03/27 04:52:00;;;;;;;103.85;68.05;;;;;;;-0.37;84.46;98372.32;1830324;76;27750;-71
2021/03/27 04:54:54;;;;;;;83.37;48.68;;;;;;;-0.25;82.71;98370.42;1818008;78;21139;-71
2021/03/27 04:57:33;;;;;;;124.45;66.30;;;;;;;-0.23;82.42;98368.38;1818167;78;21193;-72
2021/03/27 05:00:27;;;;;;;99.17;51.58;;;;;;;-0.24;82.33;98366.22;1789728;79;21094;-72
2021/03/27 05:03:10;;;;;;;92.50;47.08;;;;;;;-0.21;83.50;98372.47;1818076;79;21106;-73
2021/03/27 05:05:48;;;;;;;122.98;61.45;;;;;;;-0.14;82.70;98367.98;1817024;79;21507;-72
2021/03/27 05:09:02;;;;;;;99.97;52.60;;;;;;;-0.10;82.70;98367.05;1818154;79;21468;-72
2021/03/27 05:12:01;;;;;;;92.08;44.67;;;;;;;-0.03;82.68;98365.22;1797778;79;21215;-72
2021/03/27 05:14:49;;;;;;;97.40;48.10;;;;;;;0.01;83.00;98373.12;1786663;79;26464;-72
2021/03/27 05:17:48;;;;;;;86.50;44.45;;;;;;;0.11;82.85;98364.73;1818268;79;26579;-73
2021/03/27 05:20:37;;;;;;;84.13;44.85;;;;;;;0.18;83.24;98361.56;1818007;78;21122;-72
2021/03/27 05:23:30;;;;;;;99.17;47.10;;;;;;;0.17;83.80;98368.73;1818198;79;21512;-72
2021/03/27 05:26:17;;;;;;;88.65;45.80;;;;;;;0.31;83.47;98364.72;1815224;79;21207;-72
2021/03/27 05:29:04;;;;;;;80.20;46.75;;;;;;;0.44;83.28;98358.06;1817942;79;21102;-72
2021/03/27 05:31:50;;;;;;;79.75;46.40;;;;;;;0.53;83.71;98353.64;1817944;79;21142;-72
2021/03/27 05:34:38;;;;;;;77.27;42.65;;;;;;;0.77;83.47;98361.50;1818166;78;21488;-72
2021/03/27 05:37:31;;;;;;;57.35;34.35;;;;;;;1.09;83.11;98354.41;1818162;79;21055;-72
2021/03/27 05:40:35;;;;;;;65.20;37.20;;;;;;;1.37;82.54;98355.97;1817787;79;21408;-72
2021/03/27 05:43:07;;;;;;;67.90;37.45;;;;;;;1.55;82.18;98351.27;1817954;79;21496;-72
2021/03/27 05:45:56;;;;;;;69.92;40.10;;;;;;;1.65;81.87;98351.09;1817549;79;21464;-72
2021/03/27 05:48:48;;;;;;;;;;;;;;;1.76;81.56;98355.44;1817257;79;21483;-72
2021/03/27 05:52:02;;;;;;;67.22;38.28;;;;;;;1.76;81.50;98345.57;1821899;78;20243;-72
2021/03/27 05:54:58;;;;;;;64.53;35.83;;;;;;;1.78;81.62;98340.83;1790608;78;21392;-72
2021/03/27 05:58:01;;;;;;;69.05;38.15;;;;;;;1.82;81.66;98347.39;1824054;78;21499;-72
2021/03/27 06:00:53;;;;;;;58.70;33.70;;;;;;;1.88;81.75;98348.36;1824060;78;21047;-72
2021/03/27 06:03:45;;;;;;;65.57;37.30;;;;;;;2.00;81.38;98353.34;1823535;78;21473;-72
2021/03/27 06:06:36;;;;;;;69.20;38.35;;;;;;;2.19;80.92;98355.55;1823490;78;21098;-72
2021/03/27 06:09:37;;;;;;;76.47;39.10;;;;;;;2.34;80.83;98353.91;1823507;78;21259;-72
2021/03/27 06:12:50;;;;;;;73.07;39.67;;;;;;;2.55;80.51;98348.96;1823451;78;21122;-72
2021/03/27 06:15:51;;;;;;;68.50;35.73;;;;;;;2.89;80.16;98345.96;1823565;78;21516;-72
2021/03/27 06:18:41;;;;;;;62.27;35.52;;;;;;;3.28;79.67;98334.80;1823502;78;21087;-72
2021/03/27 06:21:54;;;;;;;65.22;36.60;;;;;;;3.55;79.44;98335.80;1797725;78;21011;-72
2021/03/27 06:24:29;;;;;;;73.37;42.88;;;;;;;3.85;79.01;98337.15;1823539;78;22064;-72
2021/03/27 06:27:32;;;;;;;69.53;38.10;;;;;;;4.24;78.62;98332.50;1822474;78;21039;-72
2021/03/27 06:30:36;;;;;;;75.75;39.08;;;;;;;4.52;78.24;98317.58;1823371;78;21304;-72
2021/03/27 06:33:34;;;;;;;62.05;35.08;;;;;;;4.74;77.19;98325.88;1823569;78;21476;-72
2021/03/27 06:36:23;;;;;;;94.75;48.17;;;;;;;4.87;75.65;98315.40;1823485;78;21126;-71
2021/03/27 06:39:30;;;;;;;78.12;43.48;;;;;;;5.03;74.42;98316.83;1800170;78;21166;-72
2021/03/27 06:42:31;;;;;;;135.72;64.92;;;;;;;5.20;74.89;98318.26;1823434;78;21428;-72
2021/03/27 06:45:41;;;;;;;73.90;39.75;;;;;;;5.28;73.16;98312.52;1823109;78;21138;-72
2021/03/27 06:48:52;;;;;;;98.12;46.50;;;;;;;5.44;74.37;98316.32;1822751;78;21492;-72
2021/03/27 06:51:43;;;;;;;59.60;38.10;;;;;;;5.59;75.05;98305.05;1819661;78;21083;-72
2021/03/27 06:54:24;;;;;;;49.65;29.32;;;;;;;5.73;72.15;98311.78;1817512;79;21206;-72
2021/03/27 06:57:19;;;;;;;62.48;36.05;;;;;;;6.55;74.03;98303.73;1817345;78;21472;-72
2021/03/27 07:00:15;;;;;;;57.20;32.10;;;;;;;7.11;72.60;98304.52;1816040;79;21030;-71
2021/03/27 07:03:19;;;;;;;56.25;32.78;;;;;;;7.87;72.44;98310.23;1811653;79;21475;-71
2021/03/27 07:06:26;;;;;;;53.08;34.75;;;;;;;8.67;70.45;98300.38;1817134;78;21031;-72
2021/03/27 07:09:24;;;;;;;55.75;36.98;;;;;;;9.52;70.17;98297.55;1817444;78;22266;-72
2021/03/27 07:12:35;;;;;;;48.73;35.37;;;;;;;10.16;65.22;98299.27;1817593;78;21161;-71
2021/03/27 07:15:43;;;;;;;55.78;36.45;;;;;;;10.90;62.81;98293.02;1816294;79;21122;-72
2021/03/27 07:18:27;;;;;;;60.20;35.00;;;;;;;11.62;60.28;98291.64;1817432;79;21087;-72
2021/03/27 07:21:33;;;;;;;48.00;32.78;;;;;;;12.32;59.31;98295.58;1817442;78;21476;-72
2021/03/27 07:24:27;;;;;;;55.28;30.77;;;;;;;13.04;62.10;98282.91;1817382;79;21187;-72
2021/03/27 07:27:45;;;;;;;60.95;40.05;;;;;;;13.65;61.04;98281.38;1817276;79;21519;-72
2021/03/27 07:30:39;;;;;;;45.47;30.83;;;;;;;14.03;57.46;98284.38;1817584;78;21512;-72
2021/03/27 07:33:37;;;;;;;60.12;39.95;;;;;;;14.75;54.80;98278.58;1817392;79;21484;-73
2021/03/27 07:36:23;;;;;;;64.00;40.20;;;;;;;15.19;51.33;98271.74;1817382;79;21496;-73
2021/03/27 07:39:32;;;;;;;50.78;28.40;;;;;;;15.77;47.77;98272.47;1816454;79;22053;-72
2021/03/27 07:42:25;;;;;;;54.67;30.50;;;;;;;16.70;50.45;98264.52;1817313;78;21039;-73
2021/03/27 07:45:27;;;;;;;47.55;25.72;;;;;;;17.54;44.17;98272.33;1817498;78;21491;-73
2021/03/27 07:48:46;;;;;;;41.42;25.90;;;;;;;17.90;42.14;98266.05;1817393;79;21503;-73
2021/03/27 07:51:50;;;;;;;33.85;22.05;;;;;;;18.05;40.02;98263.40;1820039;78;21977;-73
2021/03/27 07:54:50;;;;;;;33.65;20.70;;;;;;;18.36;39.46;98260.45;1823428;78;21186;-73
2021/03/27 07:57:59;;;;;;;33.65;21.37;;;;;;;18.96;37.41;98251.88;1823048;78;21075;-73
2021/03/27 08:00:50;;;;;;;26.20;17.70;;;;;;;19.51;36.12;98252.34;1823634;78;21682;-73
2021/03/27 08:03:44;;;;;;;25.37;16.55;;;;;;;19.89;35.45;98252.27;1823372;78;21106;-73
2021/03/27 08:06:36;;;;;;;25.55;14.73;;;;;;;20.42;36.42;98246.55;1823380;78;21094;-73
2021/03/27 08:09:32;;;;;;;20.23;13.85;;;;;;;21.03;33.66;98242.05;1823236;78;21195;-73
2021/03/27 08:12:31;;;;;;;23.60;14.80;;;;;;;21.73;31.18;98236.98;1823032;78;21424;-73
2021/03/27 08:15:33;;;;;;;23.55;13.58;;;;;;;22.42;32.63;98238.63;1823400;78;20948;-73
2021/03/27 08:18:40;;;;;;;30.05;12.90;;;;;;;23.29;27.21;98235.80;1823464;78;21494;-73
2021/03/27 08:21:30;;;;;;;26.63;13.27;;;;;;;23.26;28.03;98230.19;1803055;78;21387;-73
2021/03/27 08:24:37;;;;;;;25.12;12.18;;;;;;;23.59;27.67;98237.53;1823397;78;21087;-74
2021/03/27 08:27:37;;;;;;;17.75;12.75;;;;;;;23.68;28.93;98235.95;1802805;78;21079;-73
2021/03/27 08:30:37;;;;;;;21.07;15.83;;;;;;;24.09;27.94;98235.83;1823336;78;21115;-73
2021/03/27 08:33:43;;;;;;;24.02;11.35;;;;;;;24.77;28.59;98234.42;1823351;78;21147;-73
2021/03/27 08:36:35;;;;;;;16.75;11.85;;;;;;;25.81;25.08;98240.55;1823260;78;21027;-73
2021/03/27 08:39:38;;;;;;;15.83;11.95;;;;;;;25.53;25.23;98234.53;1823188;78;22138;-74
2021/03/27 08:42:27;;;;;;;20.30;11.83;;;;;;;25.82;24.29;98244.12;1819018;78;21495;-73
2021/03/27 08:45:02;;;;;;;38.05;12.47;;;;;;;25.78;23.58;98239.89;1823504;78;21519;-74
2021/03/27 08:48:14;;;;;;;13.78;11.10;;;;;;;26.01;21.99;98233.47;1823368;78;21019;-73
2021/03/27 08:51:17;;;;;;;17.62;11.50;;;;;;;25.98;23.18;98236.97;1822445;78;21186;-73
2021/03/27 08:54:24;;;;;;;20.45;11.18;;;;;;;25.92;21.62;98240.69;1817507;78;22061;-72
2021/03/27 08:57:27;;;;;;;18.30;13.43;;;;;;;26.03;20.93;98231.91;1817357;78;21122;-73
2021/03/27 09:00:26;;;;;;;22.87;13.18;;;;;;;24.93;22.50;98235.70;1817288;78;21082;-73
2021/03/27 09:03:19;;;;;;;19.42;14.90;;;;;;;23.28;24.46;98238.34;1817289;79;21091;-72
2021/03/27 09:06:14;;;;;;;47.48;16.77;;;;;;;22.28;25.03;98239.61;1790524;79;21158;-72
2021/03/27 09:09:11;;;;;;;21.77;11.00;;;;;;;20.97;25.69;98239.27;1781065;79;21204;-72
2021/03/27 09:12:04;;;;;;;16.97;12.60;;;;;;;20.01;26.81;98235.86;1817290;79;21416;-73
2021/03/27 09:15:05;;;;;;;19.95;12.05;;;;;;;19.22;27.99;98236.08;1736724;79;21114;-73
2021/03/27 09:18:00;;;;;;;17.15;10.18;;;;;;;18.85;28.50;98236.33;1816926;79;21075;-72
2021/03/27 09:21:03;;;;;;;21.07;11.33;;;;;;;18.63;29.30;98230.49;1817270;79;21024;-72
2021/03/27 09:24:12;;;;;;;18.65;12.55;;;;;;;18.32;29.35;98242.48;1817298;79;21266;-72
2021/03/27 09:26:55;;;;;;;20.48;12.50;;;;;;;18.06;29.44;98243.64;1769304;79;21020;-72
2021/03/27 09:29:45;;;;;;;29.18;14.55;;;;;;;17.81;30.01;98247.98;1817313;79;21528;-72
2021/03/27 09:32:43;;;;;;;20.60;13.38;;;;;;;17.75;30.87;98243.21;1817367;79;21118;-72
2021/03/27 09:35:32;;;;;;;17.85;10.85;;;;;;;17.85;30.91;98242.89;1817456;78;21027;-72
2021/03/27 09:38:22;;;;;;;16.42;10.32;;;;;;;17.83;30.30;98241.05;1817555;79;21472;-72
2021/03/27 09:41:43;;;;;;;19.55;11.65;;;;;;;17.81;30.72;98242.50;1817387;78;21429;-72
2021/03/27 09:44:43;;;;;;;19.02;12.53;;;;;;;17.74;31.32;98246.52;1817516;78;21440;-72
2021/03/27 09:47:22;;;;;;;20.82;12.70;;;;;;;17.81;30.66;98247.98;1817432;78;21408;-72
2021/03/27 09:50:02;;;;;;;20.57;12.28;;;;;;;17.72;30.90;98235.08;1817597;78;21007;-72
2021/03/27 09:52:59;;;;;;;19.95;11.83;;;;;;;17.74;30.41;98237.49;1821857;78;22038;-72
2021/03/27 09:55:49;;;;;;;19.27;11.43;;;;;;;17.53;30.61;98240.59;1823451;78;21025;-73
2021/03/27 09:58:42;;;;;;;18.57;12.58;;;;;;;17.45;31.33;98240.25;1823628;78;21496;-72
2021/03/27 10:01:26;;;;;;;20.32;10.55;;;;;;;17.53;31.50;98248.24;1823457;78;21031;-72
2021/03/27 10:04:13;;;;;;;29.75;11.97;;;;;;;17.67;30.76;98235.19;1813024;78;21063;-72
2021/03/27 10:06:53;;;;;;;17.87;10.82;;;;;;;17.84;30.60;98238.54;1823448;78;21200;-72
2021/03/27 10:09:50;;;;;;;18.10;11.00;;;;;;;17.95;30.91;98245.34;1823226;78;21134;-71
2021/03/27 10:12:31;;;;;;;22.80;12.45;;;;;;;18.10;30.61;98241.85;1823436;78;21031;-72
2021/03/27 10:15:27;;;;;;;17.60;7.72;;;;;;;18.33;29.97;98242.72;1817400;78;21095;-72
2021/03/27 10:18:10;;;;;;;17.82;11.35;;;;;;;18.41;29.19;98247.95;1809901;78;21488;-73
2021/03/27 10:20:45;;;;;;;21.68;13.25;;;;;;;18.22;29.42;98246.94;1823101;78;21273;-72
2021/03/27 10:23:36;;;;;;;15.00;10.80;;;;;;;18.13;29.99;98255.73;1823368;78;21107;-72
2021/03/27 10:26:29;;;;;;;17.85;10.98;;;;;;;18.15;30.11;98248.55;1823415;78;21086;-71
2021/03/27 10:29:05;;;;;;;18.87;12.20;;;;;;;18.18;29.57;98242.41;1794053;78;21456;-71
2021/03/27 10:31:39;;;;;;;13.88;10.45;;;;;;;18.22;29.86;98250.25;1822942;78;21142;-71
2021/03/27 10:34:28;;;;;;;17.15;10.63;;;;;;;18.20;29.52;98240.98;1823409;78;22110;-73
2021/03/27 10:37:15;;;;;;;22.45;10.40;;;;;;;18.19;29.77;98238.53;1815873;78;21133;-72
2021/03/27 10:40:04;;;;;;;16.07;10.35;;;;;;;18.25;29.76;98246.84;1822953;78;21209;-71
2021/03/27 10:43:14;;;;;;;14.23;10.23;;;;;;;18.20;30.06;98244.26;1823415;78;21134;-72
2021/03/27 10:46:01;;;;;;;18.65;11.33;;;;;;;18.24;30.44;98240.56;1823510;78;21534;-72
2021/03/27 10:48:54;;;;;;;33.13;11.10;;;;;;;18.40;30.05;98245.55;1823502;78;21248;-71
2021/03/27 10:52:08;;;;;;;19.10;10.43;;;;;;;18.50;29.74;98241.89;1821996;78;21198;-72
2021/03/27 10:55:19;;;;;;;16.07;10.38;;;;;;;18.44;29.56;98247.30;1717021;83;21503;-71
2021/03/27 10:58:23;;;;;;;14.28;8.53;;;;;;;18.28;30.06;98241.50;1717127;83;21059;-72
2021/03/27 11:01:14;;;;;;;16.45;9.85;;;;;;;18.31;29.54;98242.25;1779060;79;21480;-71
2021/03/27 11:04:37;;;;;;;16.60;11.12;;;;;;;18.22;29.84;98242.83;1817335;79;22111;-71
2021/03/27 11:07:31;;;;;;;23.85;10.28;;;;;;;18.22;30.17;98246.13;1817309;78;21496;-72
2021/03/27 11:10:33;;;;;;;17.48;10.45;;;;;;;18.28;30.03;98242.88;1817063;79;21119;-73
2021/03/27 11:13:21;;;;;;;17.70;10.10;;;;;;;18.35;30.05;98242.39;1816450;79;21019;-72
2021/03/27 11:16:22;;;;;;;16.62;9.25;;;;;;;18.29;30.32;98238.23;1817499;79;21012;-72
2021/03/27 11:19:28;;;;;;;16.55;10.60;;;;;;;18.26;30.21;98247.89;1817360;79;21475;-71
2021/03/27 11:22:45;;;;;;;19.32;10.63;;;;;;;18.14;29.88;98236.78;1817352;79;21103;-72
2021/03/27 11:25:44;;;;;;;25.12;11.73;;;;;;;17.98;30.14;98240.57;1817406;79;21499;-73
2021/03/27 11:28:32;;;;;;;19.85;8.75;;;;;;;17.97;30.85;98243.64;1817022;79;21121;-72
2021/03/27 11:31:28;;;;;;;47.27;12.82;;;;;;;18.08;29.97;98246.29;1812251;78;21091;-72
2021/03/27 11:34:14;;;;;;;18.12;10.40;;;;;;;17.98;30.33;98241.94;1817379;78;22064;-72
2021/03/27 11:36:51;;;;;;;12.85;8.20;;;;;;;17.97;30.60;98239.53;1817186;79;21130;-71
2021/03/27 11:39:40;;;;;;;13.38;9.33;;;;;;;18.07;28.93;98237.02;1817289;79;21063;-71
2021/03/27 11:42:24;;;;;;;23.92;11.28;;;;;;;17.96;29.74;98233.23;1816181;79;21044;-71
2021/03/27 11:45:09;;;;;;;20.55;11.22;;;;;;;18.02;30.22;98234.67;1817234;79;21122;-72
2021/03/27 11:47:59;;;;;;;14.80;9.35;;;;;;;18.11;29.88;98227.01;1805963;79;21152;-72
2021/03/27 11:51:17;;;;;;;16.75;10.15;;;;;;;18.14;29.27;98227.75;1817388;79;21035;-72
2021/03/27 11:54:09;;;;;;;19.67;9.27;;;;;;;18.18;29.24;98234.19;1817722;78;21508;-72
2021/03/27 11:56:49;;;;;;;14.30;7.75;;;;;;;18.26;27.85;98232.80;1810655;79;21209;-71
2021/03/27 12:02:57;;;;;;;17.92;8.78;;;;;;;18.12;28.28;98225.91;1817264;79;22202;-73
2021/03/27 12:05:57;;;;;;;13.85;8.53;;;;;;;18.18;28.38;98219.10;1817162;79;21482;-73
2021/03/27 12:08:41;;;;;;;17.00;10.03;;;;;;;18.09;28.16;98228.70;1817266;79;21083;-72
2021/03/27 12:11:14;;;;;;;15.53;8.78;;;;;;;18.06;28.58;98217.59;1766414;79;21021;-71
2021/03/27 12:13:52;;;;;;;13.30;9.03;;;;;;;18.16;28.18;98218.63;1817311;79;21098;-72
2021/03/27 12:16:39;;;;;;;14.90;7.53;;;;;;;18.16;28.59;98220.80;1817319;79;21192;-72
2021/03/27 12:19:36;;;;;;;12.95;8.95;;;;;;;18.27;27.97;98225.37;1812331;79;21468;-72
2021/03/27 12:22:22;;;;;;;14.35;7.53;;;;;;;18.12;28.70;98230.82;1817332;79;21084;-72
2021/03/27 12:25:00;;;;;;;15.75;9.50;;;;;;;18.11;28.18;98236.60;1816382;79;21020;-72
2021/03/27 12:27:42;;;;;;;12.55;8.25;;;;;;;18.03;28.94;98224.51;1817299;79;21507;-72
2021/03/27 12:30:23;;;;;;;17.05;8.58;;;;;;;18.00;28.86;98232.83;1819593;78;21409;-72
2021/03/27 12:32:56;;;;;;;33.83;21.27;;;;;;;18.03;28.90;98229.45;1813810;79;21424;-73
2021/03/27 12:35:36;;;;;;;33.48;20.62;;;;;;;17.97;28.70;98224.45;1817272;79;21085;-73
2021/03/27 12:38:19;;;;;;;25.52;15.65;;;;;;;17.96;29.33;98226.39;1817390;78;21503;-73
2021/03/27 12:41:07;;;;;;;16.15;8.48;;;;;;;18.00;29.14;98223.23;1816685;78;21075;-72
2021/03/27 12:43:37;;;;;;;9.15;7.15;;;;;;;18.08;29.12;98238.63;1817505;79;21180;-72
2021/03/27 12:46:36;;;;;;;10.00;7.65;;;;;;;18.25;28.47;98237.25;1816922;79;21483;-72
2021/03/27 12:49:06;;;;;;;;;;;;;;;18.17;28.79;98235.31;1819201;79;21516;-72
2021/03/27 12:52:00;;;;;;;13.50;8.48;;;;;;;18.15;29.03;98243.07;1817182;78;20252;-72
2021/03/27 12:55:12;;;;;;;12.07;7.47;;;;;;;18.12;29.44;98240.98;1812376;79;21016;-72
2021/03/27 12:57:57;;;;;;;11.93;7.80;;;;;;;18.04;29.20;98237.11;1817276;79;22338;-72
2021/03/27 13:01:04;;;;;;;12.58;8.00;;;;;;;18.03;29.80;98238.22;1817160;79;21102;-72
2021/03/27 13:03:46;;;;;;;11.43;7.00;;;;;;;17.99;29.68;98244.92;1817305;79;21134;-73
2021/03/27 13:06:28;;;;;;;10.68;7.00;;;;;;;17.99;29.32;98252.34;1788255;79;21413;-72
2021/03/27 13:09:15;;;;;;;12.00;7.92;;;;;;;18.00;30.08;98258.06;1805937;79;21086;-73
2021/03/27 13:12:12;;;;;;;11.88;7.50;;;;;;;17.99;29.65;98261.38;1817299;79;22061;-72